Time;durP1;ratioP1;P1;durP2;ratioP2;P2;SDS_P1;SDS_P2;PMS_P1;PMS_P2;Temp;Humidity;BMP_temperature;BMP_pressure;BME280_temperature;BME280_humidity;BME280_pressure;Samples;Min_cycle;Max_cycle;Signal;HPM_P1;HPM_P2
2021/11/15 00:00:59;;;;;;;;;;;;;;;20.81;55.49;99878.16;2069674;28;19967;-63
2021/11/15 00:02:01;;;;;;;;;;;;;;;20.82;55.61;99885.34;2074094;28;20379;-63
2021/11/15 00:03:01;;;;;;;;;;;;;;;20.83;55.44;99884.34;2074841;28;19916;-63
2021/11/15 00:04:02;;;;;;;;;;;;;;;20.84;55.47;99875.94;2065201;28;19913;-63
2021/11/15 00:05:02;;;;;;;;;;;;;;;20.84;55.70;99880.56;2062760;28;19951;-63
2021/11/15 00:06:02;;;;;;;;;;;;;;;20.86;55.58;99878.50;2069183;28;19917;-63
2021/11/15 00:07:03;;;;;;;;;;;;;;;20.84;55.59;99875.94;2072640;28;20324;-64
2021/11/15 00:08:04;;;;;;;;;;;;;;;20.88;55.56;99877.31;2076067;28;20264;-63
2021/11/15 00:09:05;;;;;;;;;;;;;;;20.89;55.26;99873.53;2072414;28;20524;-64
2021/11/15 00:10:07;;;;;;;;;;;;;;;20.99;55.31;99873.41;2077498;28;19931;-61
2021/11/15 00:11:07;;;;;;;;;;;;;;;21.05;55.13;99877.38;2080472;28;19958;-62
2021/11/15 00:12:09;;;;;;;;;;;;;;;21.17;54.67;99863.16;2082768;28;19919;-62
2021/11/15 00:13:09;;;;;;;;;;;;;;;21.23;54.66;99869.84;2086950;28;20302;-61
2021/11/15 00:14:10;;;;;;;;;;;;;;;21.31;54.35;99872.63;2083700;28;19942;-62
2021/11/15 00:15:10;;;;;;;;;;;;;;;21.39;54.07;99869.91;2085239;28;19940;-62
2021/11/15 00:16:11;;;;;;;;;;;;;;;21.50;53.92;99881.56;2079958;28;20398;-62
2021/11/15 00:17:11;;;;;;;;;;;;;;;21.57;53.61;99874.38;2081644;28;19937;-60
2021/11/15 00:18:11;;;;;;;;;;;;;;;21.61;53.59;99871.09;2087309;28;19908;-59
2021/11/15 00:19:12;;;;;;;;;;;;;;;21.67;53.39;99866.81;2077410;28;19940;-61
2021/11/15 00:20:13;;;;;;;;;;;;;;;21.69;53.22;99867.50;2075981;28;20276;-60
2021/11/15 00:21:14;;;;;;;;;;;;;;;21.72;53.26;99874.53;2083321;28;20410;-61
2021/11/15 00:22:15;;;;;;;;;;;;;;;21.74;53.19;99870.59;2082638;28;19933;-61
2021/11/15 00:23:15;;;;;;;;;;;;;;;21.76;53.16;99868.53;2084570;28;20269;-61
2021/11/15 00:24:15;;;;;;;;;;;;;;;21.78;53.03;99873.84;2087460;28;19923;-62
2021/11/15 00:25:16;;;;;;;;;;;;;;;21.77;52.83;99862.00;2086779;28;19913;-61
2021/11/15 00:26:16;;;;;;;;;;;;;;;21.79;52.83;99868.16;2086788;28;19913;-61
2021/11/15 00:27:16;;;;;;;;;;;;;;;21.81;52.81;99854.28;2084788;28;19928;-62
2021/11/15 00:28:17;;;;;;;;;;;;;;;21.82;52.78;99861.47;2080910;28;19916;-62
2021/11/15 00:29:17;;;;;;;;;;;;;;;21.82;52.76;99858.75;2085229;28;19944;-61
2021/11/15 00:30:18;;;;;;;;;;;;;;;21.83;52.81;99853.09;2083020;28;19923;-61
2021/11/15 00:31:19;;;;;;;;;;;;;;;21.84;52.92;99856.69;2083935;28;19931;-62
2021/11/15 00:32:19;;;;;;;;;;;;;;;21.85;52.91;99863.88;2080152;28;19917;-62
2021/11/15 00:33:19;;;;;;;;;;;;;;;21.86;52.76;99862.00;2084663;28;19917;-62
2021/11/15 00:34:20;;;;;;;;;;;;;;;21.87;52.92;99860.97;2086500;28;19913;-62
2021/11/15 00:35:20;;;;;;;;;;;;;;;21.87;52.68;99860.97;2076303;28;20303;-61
2021/11/15 00:36:21;;;;;;;;;;;;;;;21.88;52.81;99865.41;2074083;28;19955;-62
2021/11/15 00:37:22;;;;;;;;;;;;;;;21.89;52.77;99862.50;2075073;28;19905;-62
2021/11/15 00:38:22;;;;;;;;;;;;;;;21.89;52.74;99858.91;2069727;28;19917;-62
2021/11/15 00:39:22;;;;;;;;;;;;;;;21.90;52.79;99860.59;2072212;28;19931;-62
2021/11/15 00:40:23;;;;;;;;;;;;;;;21.89;52.72;99854.28;2078922;28;19909;-62
2021/11/15 00:41:23;;;;;;;;;;;;;;;21.90;52.62;99850.50;2077135;28;19997;-62
2021/11/15 00:42:24;;;;;;;;;;;;;;;21.90;52.80;99852.38;2073928;28;19952;-62
2021/11/15 00:43:24;;;;;;;;;;;;;;;21.90;52.74;99849.63;2068229;28;19921;-62
2021/11/15 00:44:25;;;;;;;;;;;;;;;21.91;52.84;99851.38;2066402;28;19917;-62
2021/11/15 00:45:26;;;;;;;;;;;;;;;21.92;52.84;99858.56;2078469;28;19913;-62
2021/11/15 00:46:26;;;;;;;;;;;;;;;21.92;53.03;99851.16;2077278;28;20470;-61
2021/11/15 00:47:26;;;;;;;;;;;;;;;21.92;52.72;99850.31;2080459;28;19916;-61
2021/11/15 00:48:26;;;;;;;;;;;;;;;21.94;52.86;99842.78;2067682;28;19913;-62
2021/11/15 00:49:27;;;;;;;;;;;;;;;21.95;52.71;99855.44;2070814;28;19943;-61
2021/11/15 00:50:27;;;;;;;;;;;;;;;21.96;52.66;99854.44;2075526;28;19967;-61
2021/11/15 00:51:28;;;;;;;;;;;;;;;21.96;52.82;99852.53;2081939;28;19913;-61
2021/11/15 00:52:29;;;;;;;;;;;;;;;21.97;52.87;99854.25;2080761;28;20677;-62
2021/11/15 00:53:29;;;;;;;;;;;;;;;21.97;52.96;99850.66;2080188;28;20302;-61
2021/11/15 00:54:30;;;;;;;;;;;;;;;21.97;53.00;99845.16;2080319;28;20216;-62
2021/11/15 00:55:32;;;;;;;;;;;;;;;21.98;52.91;99857.88;2079265;28;20391;-61
2021/11/15 00:56:32;;;;;;;;;;;;;;;21.97;52.87;99851.50;2079405;28;19923;-61
2021/11/15 00:57:32;;;;;;;;;;;;;;;21.99;52.94;99849.44;2076849;28;19967;-61
2021/11/15 00:58:33;;;;;;;;;;;;;;;22.00;52.92;99844.84;2074805;28;20406;-62
2021/11/15 00:59:33;;;;;;;;;;;;;;;22.01;52.70;99846.53;2071484;28;20384;-62
2021/11/15 01:00:35;;;;;;;;;;;;;;;22.02;52.91;99842.75;2070832;28;20117;-61
2021/11/15 01:01:35;;;;;;;;;;;;;;;22.02;52.75;99848.22;2078265;28;19912;-62
2021/11/15 01:02:35;;;;;;;;;;;;;;;22.02;52.91;99840.00;2076016;28;19923;-62
2021/11/15 01:03:36;;;;;;;;;;;;;;;22.03;52.76;99839.84;2076097;28;20387;-62
2021/11/15 01:04:36;;;;;;;;;;;;;;;22.04;52.73;99844.28;2065851;28;19917;-62
2021/11/15 01:05:37;;;;;;;;;;;;;;;22.05;52.64;99845.16;2067762;28;20048;-62
2021/11/15 01:06:38;;;;;;;;;;;;;;;22.05;52.98;99847.91;2080037;28;20450;-62
2021/11/15 01:07:38;;;;;;;;;;;;;;;22.05;52.77;99848.75;2077862;28;20724;-61
2021/11/15 01:08:38;;;;;;;;;;;;;;;22.06;52.76;99844.13;2077811;28;19999;-62
2021/11/15 01:09:39;;;;;;;;;;;;;;;22.06;52.52;99844.13;2077266;28;20488;-62
2021/11/15 01:10:39;;;;;;;;;;;;;;;22.08;52.46;99839.31;2076050;28;20395;-62
2021/11/15 01:11:40;;;;;;;;;;;;;;;22.07;52.68;99843.06;2077260;28;19925;-63
2021/11/15 01:12:40;;;;;;;;;;;;;;;22.09;52.61;99843.75;2080030;28;19920;-62
2021/11/15 01:13:41;;;;;;;;;;;;;;;22.08;52.57;99842.06;2080017;28;19923;-62
2021/11/15 01:14:41;;;;;;;;;;;;;;;22.09;52.62;99841.00;2074542;28;19965;-63
2021/11/15 01:15:42;;;;;;;;;;;;;;;22.10;52.71;99845.50;2071068;28;19944;-62
2021/11/15 01:16:42;;;;;;;;;;;;;;;22.09;52.73;99838.28;2082879;28;19917;-61
2021/11/15 01:17:42;;;;;;;;;;;;;;;22.09;52.48;99849.25;2079621;28;20007;-62
2021/11/15 01:18:48;;;;;;;;;;;;;;;22.09;52.58;99849.25;2073352;28;19987;-61
2021/11/15 01:19:48;;;;;;;;;;;;;;;22.10;52.53;99850.97;2070518;28;20015;-62
2021/11/15 01:20:49;;;;;;;;;;;;;;;22.09;52.53;99852.00;2073590;28;19928;-62
2021/11/15 01:21:49;;;;;;;;;;;;;;;22.10;52.53;99850.09;2079185;28;19937;-62
2021/11/15 01:22:49;;;;;;;;;;;;;;;22.10;52.71;99845.50;2083212;28;19924;-62
2021/11/15 01:23:50;;;;;;;;;;;;;;;22.09;52.70;99841.00;2084257;28;19917;-62
2021/11/15 01:24:50;;;;;;;;;;;;;;;22.10;52.71;99834.50;2083801;28;19945;-63
2021/11/15 01:25:51;;;;;;;;;;;;;;;22.10;52.62;99834.50;2085146;28;19963;-62
2021/11/15 01:26:51;;;;;;;;;;;;;;;22.09;52.53;99832.78;2081902;28;19944;-62
2021/11/15 01:27:52;;;;;;;;;;;;;;;22.09;52.66;99830.03;2081556;28;20267;-62
2021/11/15 01:28:53;;;;;;;;;;;;;;;22.09;52.43;99838.28;2088584;28;19917;-62
2021/11/15 01:29:53;;;;;;;;;;;;;;;22.09;52.63;99832.78;2087825;28;19956;-62
2021/11/15 01:30:53;;;;;;;;;;;;;;;22.07;52.63;99832.09;2086849;28;19986;-63
2021/11/15 01:31:57;;;;;;;;;;;;;;;22.08;52.48;99833.81;2088346;28;19920;-62
2021/11/15 01:32:57;;;;;;;;;;;;;;;22.07;52.61;99834.84;2088994;28;20620;-62
2021/11/15 01:33:58;;;;;;;;;;;;;;;22.05;52.73;99831.44;2085450;28;19916;-62
2021/11/15 01:34:58;;;;;;;;;;;;;;;22.07;52.45;99834.84;2084527;28;19935;-62
2021/11/15 01:36:00;;;;;;;;;;;;;;;22.06;52.67;99838.63;2081638;28;19913;-62
2021/11/15 01:37:00;;;;;;;;;;;;;;;22.05;52.59;99837.78;2081969;28;19971;-62
2021/11/15 01:38:01;;;;;;;;;;;;;;;22.05;52.78;99836.94;2086400;28;19913;-60
2021/11/15 01:39:02;;;;;;;;;;;;;;;22.04;52.75;99832.44;2085778;28;19912;-63
2021/11/15 01:40:04;;;;;;;;;;;;;;;22.04;52.82;99829.72;2085491;28;19967;-62
2021/11/15 01:41:06;;;;;;;;;;;;;;;22.02;52.59;99832.66;2082664;28;19928;-62
2021/11/15 01:42:06;;;;;;;;;;;;;;;22.03;52.86;99833.50;2087660;28;19965;-62
2021/11/15 01:43:06;;;;;;;;;;;;;;;22.01;52.68;99839.16;2086881;28;20002;-62
2021/11/15 01:44:07;;;;;;;;;;;;;;;22.02;52.84;99831.75;2086324;28;19917;-62
2021/11/15 01:45:08;;;;;;;;;;;;;;;22.03;52.74;99830.75;2087116;28;19928;-62
2021/11/15 01:46:08;;;;;;;;;;;;;;;22.02;52.70;99831.75;2086795;28;19917;-62
2021/11/15 01:47:09;;;;;;;;;;;;;;;22.00;52.70;99829.22;2086867;28;19960;-62
2021/11/15 01:48:10;;;;;;;;;;;;;;;22.00;52.73;99829.22;2087790;28;19917;-62
2021/11/15 01:49:10;;;;;;;;;;;;;;;21.99;52.69;99830.22;2090488;28;19957;-63
2021/11/15 01:50:15;;;;;;;;;;;;;;;21.99;52.75;99832.13;2087612;28;19912;-62
2021/11/15 01:51:16;;;;;;;;;;;;;;;22.00;52.82;99831.13;2073786;28;20367;-62
2021/11/15 01:52:16;;;;;;;;;;;;;;;21.99;52.70;99832.13;2075316;28;19917;-62
2021/11/15 01:53:17;;;;;;;;;;;;;;;21.98;53.02;99835.91;2086617;28;19916;-62
2021/11/15 01:54:17;;;;;;;;;;;;;;;21.96;52.73;99838.81;2083291;28;19917;-62
2021/11/15 01:55:18;;;;;;;;;;;;;;;21.98;52.86;99844.16;2090859;28;19912;-62
2021/11/15 01:56:19;;;;;;;;;;;;;;;21.97;52.60;99839.66;2088202;28;19923;-62
2021/11/15 01:57:19;;;;;;;;;;;;;;;21.97;52.82;99850.66;2085692;28;19921;-62
2021/11/15 01:58:20;;;;;;;;;;;;;;;21.96;52.71;99843.47;2086930;28;19917;-62
2021/11/15 01:59:20;;;;;;;;;;;;;;;21.97;52.74;99839.66;2088974;28;19913;-62
2021/11/15 02:00:41;;;;;;;;;;;;;;;21.96;52.89;99838.81;2083373;28;20591;-62
2021/11/15 02:01:42;;;;;;;;;;;;;;;21.96;52.96;99832.47;2085924;28;20287;-62
2021/11/15 02:02:43;;;;;;;;;;;;;;;21.95;52.86;99831.63;2083354;28;20015;-62
2021/11/15 02:03:43;;;;;;;;;;;;;;;21.95;52.90;99830.75;2085514;28;19913;-62
2021/11/15 02:04:43;;;;;;;;;;;;;;;21.95;52.76;99830.75;2090308;28;19913;-62
2021/11/15 02:05:44;;;;;;;;;;;;;;;21.95;52.97;99836.25;2083451;28;20424;-62
2021/11/15 02:06:45;;;;;;;;;;;;;;;21.95;52.96;99836.25;2078638;28;19921;-62
2021/11/15 02:07:46;;;;;;;;;;;;;;;21.94;53.02;99840.03;2085769;28;19909;-62
2021/11/15 02:08:46;;;;;;;;;;;;;;;21.93;52.85;99839.19;2080122;28;19994;-62
2021/11/15 02:09:47;;;;;;;;;;;;;;;21.94;53.02;99834.53;2081237;28;20264;-62
2021/11/15 02:10:47;;;;;;;;;;;;;;;21.90;53.20;99833.16;2079388;28;20695;-62
2021/11/15 02:11:47;;;;;;;;;;;;;;;21.89;52.89;99836.97;2070993;28;20395;-64
2021/11/15 02:12:48;;;;;;;;;;;;;;;21.74;52.55;99832.19;2069189;28;19917;-64
2021/11/15 02:13:49;;;;;;;;;;;;;;;21.57;52.82;99838.72;2074447;28;19917;-65
2021/11/15 02:14:49;;;;;;;;;;;;;;;21.43;53.06;99839.41;2072153;28;19909;-64
2021/11/15 02:15:51;;;;;;;;;;;;;;;21.31;53.04;99831.50;2074697;28;19931;-65
2021/11/15 02:16:52;;;;;;;;;;;;;;;21.23;53.19;99830.63;2071297;28;19994;-65
2021/11/15 02:17:52;;;;;;;;;;;;;;;21.16;53.60;99830.44;2073666;28;19947;-65
2021/11/15 02:18:53;;;;;;;;;;;;;;;21.11;53.68;99827.34;2070807;28;20268;-65
2021/11/15 02:19:55;;;;;;;;;;;;;;;21.07;53.59;99832.31;2063711;28;19958;-64
2021/11/15 02:20:55;;;;;;;;;;;;;;;21.06;54.05;99829.75;2073473;28;19963;-64
2021/11/15 02:21:55;;;;;;;;;;;;;;;21.04;54.08;99831.78;2072491;28;19921;-64
2021/11/15 02:22:56;;;;;;;;;;;;;;;21.01;54.15;99829.41;2068536;28;20390;-64
2021/11/15 02:23:57;;;;;;;;;;;;;;;21.00;54.12;99830.44;2069359;28;19928;-65
2021/11/15 02:25:00;;;;;;;;;;;;;;;20.98;54.30;99828.69;2073226;28;19909;-64
2021/11/15 02:26:01;;;;;;;;;;;;;;;20.97;54.23;99837.97;2074521;28;20684;-64
2021/11/15 02:27:02;;;;;;;;;;;;;;;20.95;54.33;99829.03;2072798;28;20306;-65
2021/11/15 02:28:03;;;;;;;;;;;;;;;20.94;54.24;99832.78;2075809;28;19960;-64
2021/11/15 02:29:03;;;;;;;;;;;;;;;20.91;54.26;99833.13;2074865;28;19909;-64
2021/11/15 02:30:04;;;;;;;;;;;;;;;20.91;54.35;99832.28;2066792;28;19960;-64
2021/11/15 02:31:06;;;;;;;;;;;;;;;20.89;54.41;99829.69;2066125;28;19917;-64
2021/11/15 02:32:07;;;;;;;;;;;;;;;20.90;54.36;99830.59;2075801;28;20612;-65
2021/11/15 02:33:09;;;;;;;;;;;;;;;20.89;54.22;99832.44;2075923;28;19917;-64
2021/11/15 02:34:10;;;;;;;;;;;;;;;20.87;54.48;99831.78;2075655;28;20753;-64
2021/11/15 02:35:12;;;;;;;;;;;;;;;20.86;54.77;99830.06;2077054;28;19909;-65
2021/11/15 02:36:12;;;;;;;;;;;;;;;20.83;54.65;99830.38;2063541;28;20023;-64
2021/11/15 02:37:13;;;;;;;;;;;;;;;20.83;54.72;99835.88;2064682;28;19924;-65
2021/11/15 02:38:13;;;;;;;;;;;;;;;20.83;54.57;99835.88;2076484;28;20023;-64
2021/11/15 02:39:14;;;;;;;;;;;;;;;20.81;54.67;99837.91;2073486;28;19916;-65
2021/11/15 02:40:15;;;;;;;;;;;;;;;20.81;54.95;99837.06;2075970;28;19939;-64
2021/11/15 02:41:16;;;;;;;;;;;;;;;20.81;54.72;99832.44;2073785;28;19920;-64
2021/11/15 02:42:16;;;;;;;;;;;;;;;20.79;54.66;99834.47;2073726;28;19923;-64
2021/11/15 02:43:17;;;;;;;;;;;;;;;20.78;54.58;99838.25;2073523;28;19916;-64
2021/11/15 02:44:17;;;;;;;;;;;;;;;20.78;54.88;99832.78;2073503;28;19921;-64
2021/11/15 02:45:18;;;;;;;;;;;;;;;20.77;54.97;99825.56;2075146;28;19943;-63
2021/11/15 02:46:19;;;;;;;;;;;;;;;20.76;54.81;99832.94;2075542;28;19921;-64
2021/11/15 02:47:20;;;;;;;;;;;;;;;20.75;54.88;99833.13;2076066;28;19921;-63
2021/11/15 02:48:22;;;;;;;;;;;;;;;20.75;54.79;99830.38;2073308;28;19986;-63
2021/11/15 02:49:22;;;;;;;;;;;;;;;20.73;55.05;99832.44;2076439;28;19916;-63
2021/11/15 02:50:24;;;;;;;;;;;;;;;20.74;54.98;99831.38;2074726;28;19916;-63
2021/11/15 02:51:24;;;;;;;;;;;;;;;20.73;54.90;99826.94;2072118;28;19986;-63
2021/11/15 02:52:25;;;;;;;;;;;;;;;20.72;55.00;99828.81;2074773;28;19920;-63
2021/11/15 02:53:25;;;;;;;;;;;;;;;20.72;55.04;99827.94;2075871;28;20409;-64
2021/11/15 02:54:26;;;;;;;;;;;;;;;20.71;55.12;99832.59;2076580;28;19944;-64
2021/11/15 02:55:27;;;;;;;;;;;;;;;20.70;55.10;99830.00;2071673;28;19972;-64
2021/11/15 02:56:27;;;;;;;;;;;;;;;20.70;55.01;99824.53;2072745;28;19921;-63
2021/11/15 02:57:28;;;;;;;;;;;;;;;20.69;55.25;99829.16;2076473;28;19916;-63
2021/11/15 02:58:28;;;;;;;;;;;;;;;20.69;55.20;99822.81;2075370;28;19944;-63
2021/11/15 02:59:28;;;;;;;;;;;;;;;20.68;55.08;99832.06;2072994;28;19916;-64
2021/11/15 03:00:33;;;;;;;;;;;;;;;20.67;55.24;99833.94;2074477;28;19927;-64
2021/11/15 03:01:33;;;;;;;;;;;;;;;20.68;55.16;99832.06;2070492;28;20327;-64
2021/11/15 03:02:34;;;;;;;;;;;;;;;20.66;55.02;99825.91;2072898;28;20011;-64
2021/11/15 03:03:34;;;;;;;;;;;;;;;20.67;55.01;99824.84;2077715;28;19916;-63
2021/11/15 03:04:34;;;;;;;;;;;;;;;20.65;55.27;99826.91;2074312;28;19939;-64
2021/11/15 03:05:36;;;;;;;;;;;;;;;20.65;55.15;99821.44;2068725;28;19971;-64
2021/11/15 03:06:37;;;;;;;;;;;;;;;20.65;55.30;99815.94;2065426;28;19932;-64
2021/11/15 03:07:37;;;;;;;;;;;;;;;20.64;55.31;99811.50;2077583;28;20749;-64
2021/11/15 03:08:38;;;;;;;;;;;;;;;20.64;55.34;99822.47;2074385;28;20016;-64
2021/11/15 03:09:39;;;;;;;;;;;;;;;20.64;55.33;99819.72;2075119;28;20349;-63
2021/11/15 03:10:41;;;;;;;;;;;;;;;20.63;55.16;99812.50;2076709;28;19917;-63
2021/11/15 03:11:41;;;;;;;;;;;;;;;20.63;55.32;99812.50;2074718;28;19923;-63
2021/11/15 03:12:41;;;;;;;;;;;;;;;20.62;55.46;99816.28;2077561;28;19916;-63
2021/11/15 03:13:44;;;;;;;;;;;;;;;20.62;55.22;99816.28;2074880;28;19921;-63
2021/11/15 03:14:45;;;;;;;;;;;;;;;20.61;55.36;99815.44;2075962;28;20457;-64
2021/11/15 03:15:47;;;;;;;;;;;;;;;20.61;55.51;99815.44;2066810;28;20612;-64
2021/11/15 03:16:47;;;;;;;;;;;;;;;20.61;55.46;99815.44;2059671;28;21407;-63
2021/11/15 03:17:52;;;;;;;;;;;;;;;20.60;55.56;99812.84;2060985;28;20004;-63
2021/11/15 03:18:52;;;;;;;;;;;;;;;20.60;55.51;99807.38;2073846;28;20447;-63
2021/11/15 03:19:52;;;;;;;;;;;;;;;20.59;55.42;99813.91;2075439;28;20011;-64
2021/11/15 03:20:56;;;;;;;;;;;;;;;20.57;55.44;99805.84;2076041;28;19920;-64
2021/11/15 03:21:56;;;;;;;;;;;;;;;20.58;55.45;99803.94;2072564;28;19970;-64
2021/11/15 03:22:57;;;;;;;;;;;;;;;20.58;55.49;99806.69;2076184;28;19920;-64
2021/11/15 03:23:57;;;;;;;;;;;;;;;20.58;55.46;99809.41;2075638;28;19921;-64
2021/11/15 03:24:58;;;;;;;;;;;;;;;20.57;55.66;99807.72;2076969;28;19951;-64
2021/11/15 03:25:59;;;;;;;;;;;;;;;20.55;55.46;99803.28;2074408;28;19981;-64
2021/11/15 03:26:59;;;;;;;;;;;;;;;20.56;55.53;99806.88;2076022;28;19921;-64
2021/11/15 03:27:59;;;;;;;;;;;;;;;20.54;55.57;99807.00;2072884;28;19975;-64
2021/11/15 03:29:00;;;;;;;;;;;;;;;20.55;55.56;99799.66;2074826;28;19926;-64
2021/11/15 03:30:00;;;;;;;;;;;;;;;20.54;55.62;99803.41;2073553;28;19968;-64
2021/11/15 03:31:02;;;;;;;;;;;;;;;20.53;55.61;99802.56;2074153;28;20306;-63
2021/11/15 03:32:03;;;;;;;;;;;;;;;20.54;55.66;99812.47;2073858;28;19921;-64
2021/11/15 03:33:04;;;;;;;;;;;;;;;20.53;55.47;99805.28;2066030;28;19909;-64
2021/11/15 03:34:07;;;;;;;;;;;;;;;20.53;55.38;99801.69;2065654;28;19994;-64
2021/11/15 03:35:08;;;;;;;;;;;;;;;20.52;55.46;99808.19;2079737;28;20431;-64
2021/11/15 03:36:08;;;;;;;;;;;;;;;20.52;55.59;99811.78;2075515;28;20437;-64
2021/11/15 03:37:11;;;;;;;;;;;;;;;20.52;55.55;99805.44;2066147;28;19913;-64
2021/11/15 03:38:12;;;;;;;;;;;;;;;20.51;55.55;99810.06;2066722;28;20016;-64
2021/11/15 03:39:12;;;;;;;;;;;;;;;20.51;55.51;99810.06;2073097;28;19909;-64
2021/11/15 03:40:15;;;;;;;;;;;;;;;20.51;55.58;99807.34;2071913;28;19967;-64
2021/11/15 03:41:15;;;;;;;;;;;;;;;20.50;55.56;99811.06;2075047;28;20652;-64
2021/11/15 03:42:15;;;;;;;;;;;;;;;20.49;55.73;99806.63;2076846;28;19916;-64
2021/11/15 03:43:16;;;;;;;;;;;;;;;20.48;55.43;99815.88;2074436;28;20413;-63
2021/11/15 03:44:17;;;;;;;;;;;;;;;20.49;55.77;99817.59;2065014;28;21564;-64
2021/11/15 03:45:18;;;;;;;;;;;;;;;20.49;55.76;99820.31;2070794;28;20371;-63
2021/11/15 03:46:19;;;;;;;;;;;;;;;20.49;55.49;99819.47;2070412;28;20415;-64
2021/11/15 03:47:20;;;;;;;;;;;;;;;20.48;55.71;99820.47;2076786;28;19924;-64
2021/11/15 03:48:21;;;;;;;;;;;;;;;20.47;55.64;99816.03;2073985;28;19921;-63
2021/11/15 03:49:22;;;;;;;;;;;;;;;20.47;55.59;99825.09;2073251;28;19924;-64
2021/11/15 03:50:22;;;;;;;;;;;;;;;20.46;55.77;99817.94;2073709;28;19909;-63
2021/11/15 03:51:23;;;;;;;;;;;;;;;20.46;55.70;99811.59;2074690;28;20302;-63
2021/11/15 03:52:24;;;;;;;;;;;;;;;20.45;55.79;99816.19;2075965;28;20339;-62
2021/11/15 03:53:27;;;;;;;;;;;;;;;20.45;55.63;99813.47;2068505;28;19906;-63
2021/11/15 03:54:27;;;;;;;;;;;;;;;20.46;55.79;99817.06;2065400;28;20039;-63
2021/11/15 03:55:27;;;;;;;;;;;;;;;20.43;55.87;99818.25;2071904;28;20636;-63
2021/11/15 03:56:28;;;;;;;;;;;;;;;20.44;55.87;99814.50;2068508;28;19917;-64
2021/11/15 03:57:28;;;;;;;;;;;;;;;20.43;55.84;99810.06;2071511;28;19927;-64
2021/11/15 03:58:29;;;;;;;;;;;;;;;20.43;55.84;99807.31;2070559;28;19968;-63
2021/11/15 03:59:29;;;;;;;;;;;;;;;20.43;55.95;99812.78;2074704;28;20414;-64
2021/11/15 04:00:31;;;;;;;;;;;;;;;20.42;55.68;99811.06;2068323;28;19924;-64
2021/11/15 04:01:33;;;;;;;;;;;;;;;20.42;55.76;99816.53;2068496;28;20390;-64
2021/11/15 04:02:34;;;;;;;;;;;;;;;20.42;55.93;99804.72;2073212;28;19917;-63
2021/11/15 04:03:37;;;;;;;;;;;;;;;20.40;55.77;99813.09;2075354;28;19927;-63
2021/11/15 04:04:51;;;;;;;;;;;;;;;20.42;55.95;99815.69;2071237;28;19916;-64
2021/11/15 04:05:57;;;;;;;;;;;;;;;20.41;55.76;99820.31;2075158;28;19912;-65
2021/11/15 04:06:57;;;;;;;;;;;;;;;20.41;55.73;99820.31;2074799;28;20762;-64
2021/11/15 04:07:58;;;;;;;;;;;;;;;20.40;55.75;99813.09;2074932;28;20029;-64
2021/11/15 04:09:00;;;;;;;;;;;;;;;20.40;55.76;99824.03;2075085;28;19936;-64
2021/11/15 04:10:03;;;;;;;;;;;;;;;20.40;55.85;99814.97;2075784;28;20331;-64
2021/11/15 04:11:06;;;;;;;;;;;;;;;20.38;55.93;99817.88;2076420;28;19925;-64
2021/11/15 04:12:06;;;;;;;;;;;;;;;20.39;55.83;99813.28;2074806;28;19967;-64
2021/11/15 04:13:09;;;;;;;;;;;;;;;20.39;55.86;99814.13;2066497;28;19921;-64
2021/11/15 04:14:15;;;;;;;;;;;;;;;20.38;55.86;99815.13;2068155;28;19965;-64
2021/11/15 04:15:15;;;;;;;;;;;;;;;20.39;55.74;99811.41;2074040;28;19982;-64
2021/11/15 04:16:16;;;;;;;;;;;;;;;20.37;55.80;99818.91;2076217;28;19920;-64
2021/11/15 04:17:17;;;;;;;;;;;;;;;20.37;55.95;99824.38;2078132;28;19916;-64
2021/11/15 04:18:18;;;;;;;;;;;;;;;20.37;55.78;99818.91;2073630;28;19917;-64
2021/11/15 04:19:19;;;;;;;;;;;;;;;20.38;56.00;99825.22;2071804;28;19920;-64
2021/11/15 04:20:20;;;;;;;;;;;;;;;20.35;55.85;99824.53;2074064;28;19924;-64
2021/11/15 04:21:21;;;;;;;;;;;;;;;20.37;56.01;99829.00;2070823;28;19974;-64
2021/11/15 04:22:21;;;;;;;;;;;;;;;20.35;56.00;99827.28;2069014;28;20529;-64
2021/11/15 04:23:21;;;;;;;;;;;;;;;20.35;55.81;99826.44;2063055;28;19917;-64
2021/11/15 04:24:22;;;;;;;;;;;;;;;20.34;56.03;99831.06;2066200;28;19920;-64
2021/11/15 04:25:22;;;;;;;;;;;;;;;20.35;55.86;99837.38;2077984;28;19919;-64
2021/11/15 04:26:22;;;;;;;;;;;;;;;20.34;56.01;99835.66;2076362;28;19916;-64
2021/11/15 04:27:23;;;;;;;;;;;;;;;20.34;56.04;99832.94;2073579;28;20443;-64
2021/11/15 04:28:23;;;;;;;;;;;;;;;20.33;56.01;99837.56;2064972;28;20067;-64
2021/11/15 04:29:23;;;;;;;;;;;;;;;20.33;55.98;99843.03;2063095;28;20011;-64
2021/11/15 04:30:24;;;;;;;;;;;;;;;20.33;55.95;99839.41;2074695;28;21100;-64
2021/11/15 04:31:25;;;;;;;;;;;;;;;20.32;55.88;99837.72;2074068;28;19908;-64
2021/11/15 04:32:25;;;;;;;;;;;;;;;20.32;56.02;99834.97;2070653;28;19999;-64
2021/11/15 04:33:26;;;;;;;;;;;;;;;20.31;56.01;99830.53;2073746;28;20073;-64
2021/11/15 04:34:26;;;;;;;;;;;;;;;20.31;55.94;99833.28;2069866;28;19916;-62
2021/11/15 04:35:26;;;;;;;;;;;;;;;20.31;55.84;99830.53;2070527;28;20422;-63
2021/11/15 04:36:27;;;;;;;;;;;;;;;20.31;56.02;99825.06;2072798;28;20275;-64
2021/11/15 04:37:27;;;;;;;;;;;;;;;20.30;55.99;99823.31;2073795;28;19924;-62
2021/11/15 04:38:27;;;;;;;;;;;;;;;20.30;56.16;99824.19;2072315;28;19940;-64
2021/11/15 04:39:28;;;;;;;;;;;;;;;20.29;56.01;99821.63;2073340;28;19951;-63
2021/11/15 04:40:28;;;;;;;;;;;;;;;20.29;56.09;99816.16;2076262;28;19928;-63
2021/11/15 04:41:28;;;;;;;;;;;;;;;20.29;56.08;99816.16;2073150;28;20679;-63
2021/11/15 04:42:29;;;;;;;;;;;;;;;20.28;56.00;99820.75;2076437;28;19917;-63
2021/11/15 04:43:29;;;;;;;;;;;;;;;20.28;56.11;99819.88;2072804;28;19917;-63
2021/11/15 04:44:29;;;;;;;;;;;;;;;20.28;55.96;99823.47;2073580;28;19909;-63
2021/11/15 04:45:30;;;;;;;;;;;;;;;20.28;56.04;99825.38;2075269;28;19921;-63
2021/11/15 04:46:31;;;;;;;;;;;;;;;20.29;55.94;99821.63;2073376;28;19952;-63
2021/11/15 04:47:31;;;;;;;;;;;;;;;20.27;56.09;99819.03;2074806;28;19951;-63
2021/11/15 04:48:31;;;;;;;;;;;;;;;20.26;55.99;99822.81;2074275;28;19939;-63
2021/11/15 04:49:31;;;;;;;;;;;;;;;20.28;55.97;99830.84;2071033;28;19924;-63
2021/11/15 04:50:32;;;;;;;;;;;;;;;20.26;55.99;99821.94;2071075;28;19942;-63
2021/11/15 04:51:33;;;;;;;;;;;;;;;20.25;55.93;99828.44;2073431;28;20284;-64
2021/11/15 04:52:33;;;;;;;;;;;;;;;20.25;56.00;99817.50;2074644;28;19915;-63
2021/11/15 04:53:34;;;;;;;;;;;;;;;20.26;56.00;99827.41;2070266;28;19963;-64
2021/11/15 04:54:34;;;;;;;;;;;;;;;20.24;55.87;99824.00;2074150;28;20673;-64
2021/11/15 04:55:38;;;;;;;;;;;;;;;20.24;55.88;99821.25;2072923;28;20379;-63
2021/11/15 04:56:38;;;;;;;;;;;;;;;20.24;56.08;99824.00;2074634;28;19917;-63
2021/11/15 04:57:39;;;;;;;;;;;;;;;20.24;55.91;99824.00;2072208;28;19944;-63
2021/11/15 04:58:39;;;;;;;;;;;;;;;20.23;56.06;99822.25;2066615;28;19952;-64
2021/11/15 04:59:39;;;;;;;;;;;;;;;20.23;56.05;99823.13;2064028;28;20012;-64
2021/11/15 05:00:40;;;;;;;;;;;;;;;20.23;55.99;99822.25;2075401;28;19921;-64
2021/11/15 05:01:40;;;;;;;;;;;;;;;20.23;55.94;99819.53;2070387;28;20500;-64
2021/11/15 05:02:40;;;;;;;;;;;;;;;20.23;56.07;99819.53;2072835;28;19927;-64
2021/11/15 05:03:41;;;;;;;;;;;;;;;20.22;55.90;99823.31;2075887;28;20620;-63
2021/11/15 05:04:41;;;;;;;;;;;;;;;20.21;56.08;99821.56;2064425;28;19917;-64
2021/11/15 05:05:42;;;;;;;;;;;;;;;20.21;56.17;99818.81;2066002;28;20817;-63
2021/11/15 05:06:43;;;;;;;;;;;;;;;20.21;55.95;99824.31;2064719;28;19917;-64
2021/11/15 05:07:44;;;;;;;;;;;;;;;20.20;56.00;99815.25;2067253;28;19917;-63
2021/11/15 05:08:46;;;;;;;;;;;;;;;20.20;55.99;99814.38;2063968;28;19921;-64
2021/11/15 05:09:46;;;;;;;;;;;;;;;20.20;56.09;99817.13;2074805;28;20017;-63
2021/11/15 05:10:46;;;;;;;;;;;;;;;20.20;56.08;99811.66;2072703;28;19916;-64
2021/11/15 05:11:47;;;;;;;;;;;;;;;20.20;56.20;99811.66;2072800;28;20323;-63
2021/11/15 05:12:47;;;;;;;;;;;;;;;20.19;56.11;99809.94;2074521;28;19912;-64
2021/11/15 05:13:48;;;;;;;;;;;;;;;20.19;56.21;99809.94;2072393;28;19934;-63
2021/11/15 05:14:49;;;;;;;;;;;;;;;20.19;56.05;99815.44;2066519;28;19917;-63
2021/11/15 05:15:49;;;;;;;;;;;;;;;20.18;56.26;99814.53;2063414;28;19917;-64
2021/11/15 05:16:50;;;;;;;;;;;;;;;20.18;56.24;99824.63;2074288;28;20043;-64
2021/11/15 05:17:50;;;;;;;;;;;;;;;20.17;56.25;99822.94;2069936;28;20031;-64